Time;durP1;ratioP1;P1;durP2;ratioP2;P2;SDS_P1;SDS_P2;PMS_P1;PMS_P2;Temp;Humidity;BMP_temperature;BMP_pressure;BME280_temperature;BME280_humidity;BME280_pressure;Samples;Min_cycle;Max_cycle;Signal;HPM_P1;HPM_P2
2022/08/26 00:01:17;;;;;;;15.00;5.90;;;;;;;26.46;52.64;100626.25;5046897;28;20775;-63
2022/08/26 00:03:43;;;;;;;21.17;6.25;;;;;;;26.47;52.40;100625.19;5047097;28;20390;-63
2022/08/26 00:06:09;;;;;;;17.67;5.73;;;;;;;26.46;52.34;100633.63;5046815;28;20455;-63
2022/08/26 00:08:34;;;;;;;19.77;6.22;;;;;;;26.45;52.44;100627.38;5046668;28;20961;-63
2022/08/26 00:16:36;;;;;;;17.73;6.53;;;;;;;26.37;52.53;100619.78;5113883;27;20473;-64
2022/08/26 00:19:03;;;;;;;19.63;6.30;;;;;;;26.32;52.90;100626.03;5067149;28;20812;-63
2022/08/26 00:21:50;;;;;;;17.35;6.18;;;;;;;26.31;52.80;100638.03;5106669;27;20412;-64
2022/08/26 00:24:20;;;;;;;15.83;5.90;;;;;;;26.30;52.91;100635.56;5107975;28;20396;-63
2022/08/26 00:26:46;;;;;;;12.90;5.70;;;;;;;26.28;53.03;100624.16;5097655;28;20426;-63
2022/08/26 00:29:13;;;;;;;15.13;6.07;;;;;;;26.28;52.93;100635.84;5087276;28;20374;-63
2022/08/26 00:31:38;;;;;;;12.70;6.32;;;;;;;26.24;53.19;100625.81;5087236;28;20378;-63
2022/08/26 00:34:04;;;;;;;16.45;6.38;;;;;;;26.22;53.06;100633.44;5085865;28;20414;-63
2022/08/26 00:36:30;;;;;;;16.23;6.07;;;;;;;26.21;53.01;100623.66;5087064;28;20379;-63
2022/08/26 00:38:57;;;;;;;12.63;5.78;;;;;;;26.19;53.10;100625.84;5087060;28;20465;-63
2022/08/26 00:41:23;;;;;;;14.88;6.55;;;;;;;26.17;53.05;100630.75;5099551;28;20483;-63
2022/08/26 00:43:50;;;;;;;16.70;6.07;;;;;;;26.16;53.15;100632.63;5086949;28;20738;-64
2022/08/26 00:46:22;;;;;;;14.60;5.95;;;;;;;26.16;53.50;100619.03;5084690;28;20402;-63
2022/08/26 00:48:51;;;;;;;19.20;6.47;;;;;;;26.11;53.16;100611.72;5086826;28;20414;-63
2022/08/26 00:51:20;;;;;;;17.38;6.68;;;;;;;26.09;53.18;100613.09;5085699;28;20416;-63
2022/08/26 00:53:56;;;;;;;15.00;6.07;;;;;;;26.09;53.46;100627.50;5086776;28;20900;-63
2022/08/26 00:56:30;;;;;;;14.65;6.00;;;;;;;26.09;53.46;100626.66;5087036;28;20433;-63
2022/08/26 00:58:59;;;;;;;13.82;6.15;;;;;;;26.05;53.74;100626.41;5086452;28;20390;-62
2022/08/26 01:01:27;;;;;;;16.47;6.20;;;;;;;26.05;53.77;100628.31;5085215;28;20424;-63
2022/08/26 01:03:54;;;;;;;19.20;6.50;;;;;;;26.04;53.61;100630.22;5086822;28;20835;-63
2022/08/26 01:06:21;;;;;;;13.75;6.28;;;;;;;26.03;53.45;100622.34;5104627;28;20385;-63
2022/08/26 01:08:46;;;;;;;13.60;6.18;;;;;;;26.05;53.49;100631.84;5106731;28;20381;-63
2022/08/26 01:12:02;;;;;;;14.77;6.28;;;;;;;26.06;53.52;100629.94;5066111;28;20410;-63
2022/08/26 01:15:40;;;;;;;12.85;5.88;;;;;;;26.09;53.34;100640.25;5066204;28;20462;-63
2022/08/26 01:18:06;;;;;;;19.73;6.00;;;;;;;26.03;53.33;100633.22;5067444;28;20423;-63
2022/08/26 01:20:56;;;;;;;13.20;5.97;;;;;;;26.08;53.39;100635.91;5066938;28;20479;-63
2022/08/26 01:23:23;;;;;;;14.93;6.35;;;;;;;26.06;53.07;100633.47;5067065;28;20383;-63
2022/08/26 01:25:55;;;;;;;11.70;6.20;;;;;;;26.06;53.19;100629.94;5053543;28;20381;-63
2022/08/26 01:28:28;;;;;;;12.00;5.50;;;;;;;26.08;53.08;100627.78;5046964;28;20384;-64
2022/08/26 01:30:55;;;;;;;15.93;6.53;;;;;;;26.08;53.16;100635.91;5046589;28;20741;-63
2022/08/26 01:33:33;;;;;;;13.52;6.32;;;;;;;26.07;53.13;100632.41;5046789;28;20381;-63
2022/08/26 01:35:59;;;;;;;20.13;6.60;;;;;;;26.09;53.12;100634.81;5045459;28;20390;-63
2022/08/26 01:38:26;;;;;;;13.93;6.53;;;;;;;26.08;53.15;100627.78;5046584;28;20386;-63
2022/08/26 01:40:52;;;;;;;12.77;6.13;;;;;;;26.11;52.83;100633.47;5046279;28;20393;-63
2022/08/26 01:43:22;;;;;;;13.80;6.60;;;;;;;26.09;52.93;100626.66;5046818;28;20393;-63
2022/08/26 01:45:49;;;;;;;15.50;6.72;;;;;;;26.06;53.28;100621.81;5046674;28;20370;-63
2022/08/26 01:50:15;;;;;;;12.65;6.85;;;;;;;26.08;53.29;100623.16;5106585;27;20400;-63
2022/08/26 01:52:43;;;;;;;14.15;6.22;;;;;;;26.04;53.27;100621.28;5108010;28;20487;-63
2022/08/26 01:55:13;;;;;;;16.27;6.30;;;;;;;26.01;53.12;100619.09;5100609;28;20393;-64
2022/08/26 01:57:40;;;;;;;12.93;6.75;;;;;;;25.95;53.13;100629.16;5087212;28;20965;-63
2022/08/26 02:00:10;;;;;;;18.85;7.38;;;;;;;25.89;53.59;100622.91;5087532;28;20899;-63
2022/08/26 02:02:36;;;;;;;14.00;6.53;;;;;;;25.82;53.66;100621.53;5087186;28;20386;-63
2022/08/26 02:05:05;;;;;;;13.95;6.13;;;;;;;25.85;53.58;100627.22;5086833;28;20375;-63
2022/08/26 02:08:46;;;;;;;14.05;6.28;;;;;;;25.79;53.89;100612.06;5106664;27;20404;-62
2022/08/26 02:11:13;;;;;;;16.42;6.68;;;;;;;25.75;53.85;100610.97;5105649;28;20487;-63
2022/08/26 02:13:42;;;;;;;13.32;6.55;;;;;;;25.71;53.80;100620.75;5107364;28;20759;-63
2022/08/26 02:16:08;;;;;;;14.82;6.20;;;;;;;25.67;53.88;100614.25;5105757;28;20389;-63
2022/08/26 02:18:37;;;;;;;16.67;6.57;;;;;;;25.63;54.11;100618.59;5107389;28;20434;-63
2022/08/26 02:21:03;;;;;;;14.98;6.68;;;;;;;25.55;54.13;100611.78;5107441;28;20403;-64
2022/08/26 02:23:29;;;;;;;16.30;6.68;;;;;;;25.54;54.59;100624.56;5107165;28;20376;-63
2022/08/26 02:26:02;;;;;;;14.73;7.17;;;;;;;25.51;54.36;100624.28;5096143;28;20384;-63
2022/08/26 02:28:34;;;;;;;17.40;7.57;;;;;;;25.47;54.38;100617.78;5107264;28;20412;-63
2022/08/26 02:31:00;;;;;;;15.68;6.75;;;;;;;25.44;54.36;100615.59;5088575;28;20393;-63
2022/08/26 02:33:27;;;;;;;18.88;7.22;;;;;;;25.41;54.52;100616.13;5086569;28;20379;-63
2022/08/26 02:35:53;;;;;;;12.55;6.97;;;;;;;25.35;54.71;100610.75;5089750;28;20481;-63
2022/08/26 02:38:18;;;;;;;13.93;6.93;;;;;;;25.29;54.71;100611.81;5107443;28;20472;-63
2022/08/26 02:40:44;;;;;;;13.07;6.70;;;;;;;25.30;54.92;100609.91;5096330;28;20386;-63
2022/08/26 02:43:11;;;;;;;17.08;7.60;;;;;;;25.29;54.78;100614.53;5086441;28;20406;-63
2022/08/26 02:45:39;;;;;;;15.25;7.18;;;;;;;25.25;54.87;100616.16;5092042;28;20477;-63
2022/08/26 02:48:11;;;;;;;14.57;7.38;;;;;;;25.23;55.00;100614.75;5106580;28;20408;-62
2022/08/26 02:50:38;;;;;;;14.47;7.17;;;;;;;25.22;55.13;100616.66;5066040;28;20822;-63
2022/08/26 02:53:04;;;;;;;14.40;7.00;;;;;;;25.21;54.80;100625.91;5066283;28;20380;-63
2022/08/26 02:55:30;;;;;;;12.88;6.85;;;;;;;25.17;55.11;100619.34;5079911;28;20380;-63
2022/08/26 02:57:56;;;;;;;14.85;7.40;;;;;;;25.17;55.12;100624.78;5106408;28;20894;-63
2022/08/26 03:00:22;;;;;;;19.43;7.63;;;;;;;25.12;55.34;100620.19;5104689;28;20449;-62
2022/08/26 03:02:49;;;;;;;14.55;7.38;;;;;;;25.12;55.22;100625.59;5089987;28;20398;-63
2022/08/26 03:05:16;;;;;;;22.15;8.02;;;;;;;25.11;55.45;100623.16;5085886;28;20381;-63
2022/08/26 03:07:42;;;;;;;17.67;7.33;;;;;;;25.10;55.46;100627.78;5089346;28;20752;-63
2022/08/26 03:10:11;;;;;;;15.27;6.53;;;;;;;25.16;55.38;100628.59;5087482;28;20447;-62
2022/08/26 03:12:36;;;;;;;12.40;6.75;;;;;;;25.14;55.37;100628.06;5102616;28;20878;-64
2022/08/26 03:15:03;;;;;;;13.97;7.00;;;;;;;25.14;55.37;100631.56;5105771;28;20445;-63
2022/08/26 03:17:29;;;;;;;16.77;7.57;;;;;;;25.11;55.41;100634.00;5086729;28;20401;-63
2022/08/26 03:19:54;;;;;;;13.63;6.90;;;;;;;25.07;55.40;100639.16;5073199;28;20893;-63
2022/08/26 03:22:20;;;;;;;12.87;7.57;;;;;;;24.99;55.69;100626.94;5072177;28;20379;-63
2022/08/26 03:24:45;;;;;;;14.67;7.10;;;;;;;25.04;55.64;100638.88;5072468;28;20382;-63
2022/08/26 03:27:11;;;;;;;11.68;6.90;;;;;;;25.00;55.65;100635.91;5088765;28;20421;-63
2022/08/26 03:33:30;;;;;;;19.15;7.22;;;;;;;25.02;55.81;100649.19;5066041;28;20474;-63
2022/08/26 03:35:55;;;;;;;14.57;7.47;;;;;;;24.95;56.01;100644.81;5067193;28;20805;-63
2022/08/26 03:38:24;;;;;;;13.00;7.47;;;;;;;24.97;55.97;100649.97;5067070;28;20383;-63
2022/08/26 03:40:49;;;;;;;26.90;10.20;;;;;;;24.99;56.14;100645.94;5060446;28;20386;-64
2022/08/26 03:43:16;;;;;;;16.83;7.82;;;;;;;24.98;56.10;100657.03;5046756;28;20471;-63
2022/08/26 03:45:42;;;;;;;19.13;8.90;;;;;;;24.98;56.09;100649.72;5047034;28;20392;-63
2022/08/26 03:48:07;;;;;;;17.60;8.10;;;;;;;25.03;55.83;100651.63;5046652;28;20389;-63
2022/08/26 03:50:34;;;;;;;14.10;7.72;;;;;;;25.03;55.79;100646.22;5046934;28;20408;-63
2022/08/26 03:53:00;;;;;;;18.33;9.20;;;;;;;25.05;55.68;100654.88;5046707;28;20416;-64
2022/08/26 03:55:31;;;;;;;16.85;8.73;;;;;;;25.08;55.47;100653.53;5046300;28;20402;-63
2022/08/26 03:57:57;;;;;;;18.02;8.02;;;;;;;25.08;55.60;100657.03;5045500;28;20480;-63
2022/08/26 04:00:23;;;;;;;13.75;7.30;;;;;;;25.10;55.44;100654.91;5044645;28;20393;-63
2022/08/26 04:02:49;;;;;;;18.10;10.03;;;;;;;25.10;55.60;100651.34;5036620;28;20761;-63
2022/08/26 04:05:18;;;;;;;18.27;8.30;;;;;;;25.12;55.41;100658.16;5032506;28;20387;-62
2022/08/26 04:07:46;;;;;;;16.50;8.18;;;;;;;25.19;55.32;100661.44;5035176;28;20415;-63
2022/08/26 04:10:16;;;;;;;16.58;8.40;;;;;;;25.22;55.26;100651.91;5033941;28;20779;-63
2022/08/26 04:12:42;;;;;;;14.23;7.80;;;;;;;25.27;55.19;100649.25;5042927;28;20513;-63
2022/08/26 04:15:12;;;;;;;22.77;8.50;;;;;;;25.32;55.08;100645.75;5045555;28;20394;-63
2022/08/26 04:17:37;;;;;;;19.92;8.70;;;;;;;25.41;54.90;100641.41;5045502;28;20378;-62
2022/08/26 04:20:05;;;;;;;22.40;8.77;;;;;;;25.53;54.55;100643.81;5045471;28;20517;-63
2022/08/26 04:22:31;;;;;;;23.88;9.50;;;;;;;25.62;54.27;100642.19;5045336;28;20484;-63
2022/08/26 04:24:56;;;;;;;15.07;8.90;;;;;;;25.78;53.78;100644.91;5044717;28;20393;-62
2022/08/26 04:27:22;;;;;;;15.87;9.30;;;;;;;25.96;53.41;100647.06;5045326;28;20394;-63
2022/08/26 04:29:47;;;;;;;18.60;8.70;;;;;;;26.08;52.87;100653.03;5045306;28;20937;-63
2022/08/26 04:32:13;;;;;;;22.48;8.57;;;;;;;26.36;52.24;100649.94;5054689;28;20419;-63
2022/08/26 04:34:38;;;;;;;17.17;9.50;;;;;;;26.61;51.71;100643.63;5065039;28;20384;-63
2022/08/26 04:37:05;;;;;;;21.00;9.07;;;;;;;26.81;51.31;100645.44;5047824;28;20454;-63
2022/08/26 04:39:31;;;;;;;15.17;8.70;;;;;;;27.01;50.63;100653.47;5065423;28;20554;-63
2022/08/26 04:41:57;;;;;;;21.40;10.27;;;;;;;27.22;49.81;100651.41;5065619;28;20387;-62
2022/08/26 04:44:24;;;;;;;20.88;9.90;;;;;;;27.50;49.30;100651.78;5054973;28;20399;-64
2022/08/26 04:46:50;;;;;;;34.67;9.75;;;;;;;27.77;48.40;100661.38;5052519;28;20961;-64
2022/08/26 04:49:16;;;;;;;20.60;8.90;;;;;;;28.00;47.89;100662.50;5051527;28;20480;-64
2022/08/26 04:51:42;;;;;;;14.27;8.27;;;;;;;28.29;47.08;100665.22;5052160;28;20462;-64
2022/08/26 04:54:07;;;;;;;21.57;9.00;;;;;;;28.55;46.57;100664.94;5051683;28;20407;-63
2022/08/26 04:56:40;;;;;;;21.73;9.52;;;;;;;28.82;45.80;100653.38;5051195;28;20384;-63
2022/08/26 04:59:09;;;;;;;25.15;9.45;;;;;;;29.13;45.17;100661.13;5050434;28;20767;-64
2022/08/26 05:01:56;;;;;;;24.85;9.23;;;;;;;29.34;44.44;100648.81;5051123;28;20463;-63
2022/08/26 05:04:21;;;;;;;18.90;9.52;;;;;;;29.67;43.64;100651.53;5051644;28;20384;-64
2022/08/26 05:06:47;;;;;;;20.87;10.33;;;;;;;30.09;42.90;100652.44;5051870;28;20388;-65
2022/08/26 05:11:30;;;;;;;19.33;10.48;;;;;;;30.99;41.04;100640.19;5084830;27;2069241;-63
2022/08/26 05:13:55;;;;;;;21.73;10.00;;;;;;;31.44;39.97;100640.22;5127852;28;20828;-63
2022/08/26 05:16:21;;;;;;;17.87;9.10;;;;;;;31.90;39.09;100647.25;5128087;28;20401;-63
2022/08/26 05:18:46;;;;;;;25.03;9.97;;;;;;;32.62;38.15;100647.22;5128003;28;20409;-65
2022/08/26 05:21:22;;;;;;;21.40;8.67;;;;;;;34.35;34.59;100639.78;5127923;28;20375;-63
2022/08/26 05:23:50;;;;;;;20.25;8.80;;;;;;;36.18;31.38;100637.25;5127949;28;20383;-63
2022/08/26 05:26:16;;;;;;;17.88;7.88;;;;;;;37.72;29.16;100634.59;5127337;28;20387;-63
2022/08/26 05:28:42;;;;;;;18.42;8.35;;;;;;;38.68;27.82;100627.75;5127927;28;20379;-63
2022/08/26 05:31:20;;;;;;;17.63;8.37;;;;;;;39.54;26.55;100625.84;5127109;28;20829;-63
2022/08/26 05:33:46;;;;;;;19.52;7.90;;;;;;;40.31;25.59;100638.56;5127387;27;20386;-63
2022/08/26 05:36:15;;;;;;;24.92;8.48;;;;;;;40.99;24.51;100635.13;5126670;27;20428;-62
2022/08/26 05:38:42;;;;;;;10.75;7.07;;;;;;;41.80;23.84;100630.75;5127199;27;20903;-61
2022/08/26 05:41:20;;;;;;;16.00;6.95;;;;;;;42.38;22.76;100624.38;5108065;27;20382;-63
2022/08/26 05:43:46;;;;;;;19.50;7.75;;;;;;;43.00;22.14;100622.66;5122105;27;20401;-62
2022/08/26 05:46:12;;;;;;;12.48;7.32;;;;;;;43.46;21.44;100619.16;5124546;27;20391;-64
2022/08/26 05:48:38;;;;;;;17.93;7.10;;;;;;;43.76;21.07;100611.59;5126528;27;20448;-62
2022/08/26 05:51:07;;;;;;;15.15;7.30;;;;;;;44.25;20.76;100619.09;5124104;27;20872;-63
2022/08/26 05:53:33;;;;;;;13.35;6.53;;;;;;;44.74;20.04;100621.34;5127597;27;20386;-62
2022/08/26 05:55:59;;;;;;;15.75;6.88;;;;;;;45.07;20.07;100622.75;5127117;27;20420;-63
2022/08/26 05:58:26;;;;;;;16.83;7.75;;;;;;;45.53;19.61;100618.84;5126913;28;20386;-63
2022/08/26 06:01:05;;;;;;;13.57;7.13;;;;;;;45.98;18.95;100620.84;5127239;28;20382;-63
2022/08/26 06:03:34;;;;;;;17.30;8.93;;;;;;;46.12;18.79;100614.28;5126488;28;20395;-63
2022/08/26 06:06:09;;;;;;;19.53;8.00;;;;;;;46.66;18.07;100614.47;5127365;28;20750;-63
2022/08/26 06:08:35;;;;;;;17.77;7.82;;;;;;;47.17;17.68;100608.13;5126175;27;20399;-62
2022/08/26 06:11:07;;;;;;;18.27;7.47;;;;;;;47.53;17.26;100618.81;5125111;27;20414;-63
2022/08/26 06:13:33;;;;;;;12.95;7.20;;;;;;;48.11;16.92;100604.53;5123564;27;20407;-63
2022/08/26 06:16:02;;;;;;;15.37;7.50;;;;;;;48.60;16.43;100615.94;5125631;28;20367;-62
2022/08/26 06:18:33;;;;;;;17.77;7.43;;;;;;;48.83;16.45;100609.44;5126317;28;20481;-63
2022/08/26 06:21:00;;;;;;;22.08;7.32;;;;;;;49.29;15.57;100604.75;5123120;28;20742;-63
2022/08/26 06:26:23;;;;;;;14.52;5.65;;;;;;;50.27;14.48;100617.06;5057262;28;20906;-63
2022/08/26 06:28:48;;;;;;;14.67;6.63;;;;;;;50.67;14.15;100613.84;5112998;28;20454;-62
2022/08/26 06:31:14;;;;;;;21.83;7.70;;;;;;;51.23;13.87;100610.50;5112792;28;20400;-63
2022/08/26 06:33:42;;;;;;;13.23;5.80;;;;;;;51.81;13.53;100608.47;5112657;28;20472;-62
2022/08/26 06:36:08;;;;;;;17.40;6.37;;;;;;;52.22;13.37;100609.44;5112819;28;20379;-62
2022/08/26 06:38:33;;;;;;;12.47;6.03;;;;;;;52.53;12.88;100603.00;5112936;28;20367;-62
2022/08/26 06:40:59;;;;;;;13.00;5.90;;;;;;;52.51;13.02;100599.84;5112656;28;20388;-62
2022/08/26 06:43:26;;;;;;;12.43;5.82;;;;;;;52.48;13.04;100597.97;5112722;28;20421;-63
2022/08/26 06:46:03;;;;;;;12.02;6.03;;;;;;;52.70;12.74;100593.03;5112365;28;20449;-63
2022/08/26 06:48:28;;;;;;;13.98;6.38;;;;;;;53.12;12.45;100588.91;5112754;28;20457;-63
2022/08/26 06:51:20;;;;;;;14.43;6.20;;;;;;;53.29;12.39;100583.78;5112614;28;20506;-62
2022/08/26 06:53:47;;;;;;;15.07;6.38;;;;;;;53.15;12.52;100579.50;5112110;28;20380;-62
2022/08/26 06:56:15;;;;;;;14.63;5.78;;;;;;;53.31;11.82;100589.75;5112002;28;20375;-63
2022/08/26 06:58:41;;;;;;;18.20;5.43;;;;;;;53.26;12.29;100577.00;5111314;28;20429;-62
2022/08/26 07:01:29;;;;;;;14.90;5.18;;;;;;;53.35;12.07;100578.28;5110914;28;20795;-63
2022/08/26 07:03:56;;;;;;;21.73;6.38;;;;;;;53.86;11.78;100577.63;5093974;28;20395;-62
2022/08/26 07:06:22;;;;;;;14.05;5.97;;;;;;;54.10;11.58;100559.94;5111545;28;20379;-63
2022/08/26 07:08:50;;;;;;;12.02;5.53;;;;;;;54.32;10.79;100571.88;5110350;28;20378;-64
2022/08/26 07:11:15;;;;;;;16.25;6.15;;;;;;;54.39;11.32;100565.88;5111809;28;20426;-62
2022/08/26 07:13:41;;;;;;;16.77;5.63;;;;;;;54.29;11.34;100575.66;5111522;28;20375;-63
2022/08/26 07:16:11;;;;;;;15.70;5.88;;;;;;;53.76;11.64;100574.03;5111722;28;20516;-62
2022/08/26 07:18:38;;;;;;;11.20;5.43;;;;;;;53.09;12.02;100572.84;5111394;28;20380;-62
2022/08/26 07:21:06;;;;;;;20.45;6.85;;;;;;;52.48;12.49;100567.63;5111376;28;20500;-61
2022/08/26 07:23:33;;;;;;;13.70;5.50;;;;;;;50.92;13.33;100569.97;5112056;28;20379;-61
2022/08/26 07:25:58;;;;;;;16.57;5.97;;;;;;;49.50;14.35;100569.59;5111675;28;20383;-60
2022/08/26 07:28:24;;;;;;;12.07;5.40;;;;;;;48.18;15.42;100562.22;5093291;28;20768;-62
2022/08/26 07:30:50;;;;;;;12.97;5.60;;;;;;;46.37;16.89;100566.34;5111061;28;20434;-60
2022/08/26 07:33:16;;;;;;;16.17;5.18;;;;;;;45.51;17.61;100570.06;5110587;28;20865;-60
2022/08/26 07:35:44;;;;;;;16.40;5.57;;;;;;;44.73;18.32;100572.97;5111499;28;20374;-60
2022/08/26 07:38:10;;;;;;;13.95;5.57;;;;;;;44.03;19.39;100567.25;5111591;28;20865;-60
2022/08/26 07:40:37;;;;;;;14.55;4.95;;;;;;;43.41;19.86;100572.13;5111724;28;20486;-60
2022/08/26 07:43:02;;;;;;;16.30;5.35;;;;;;;42.72;20.09;100565.63;5111493;28;20367;-59
2022/08/26 07:45:28;;;;;;;12.47;5.93;;;;;;;42.40;21.29;100565.47;5111633;28;20869;-60
2022/08/26 07:47:54;;;;;;;12.20;5.47;;;;;;;42.03;22.17;100563.69;5111261;28;20415;-59
2022/08/26 07:50:21;;;;;;;15.67;5.57;;;;;;;41.53;22.74;100569.69;5111002;28;20407;-60
2022/08/26 07:52:47;;;;;;;24.20;6.32;;;;;;;41.01;23.49;100569.59;5111486;28;20379;-59
2022/08/26 07:55:13;;;;;;;17.52;6.05;;;;;;;40.72;23.80;100576.81;5111597;28;20371;-60
2022/08/26 07:57:39;;;;;;;19.80;5.97;;;;;;;40.38;23.76;100585.13;5111578;28;20379;-59
2022/08/26 08:00:07;;;;;;;15.13;5.30;;;;;;;39.92;24.23;100576.91;5111574;28;20372;-59
2022/08/26 08:02:32;;;;;;;15.77;5.30;;;;;;;39.63;23.96;100576.44;5111353;28;20459;-59
2022/08/26 08:04:58;;;;;;;18.37;4.53;;;;;;;39.40;23.85;100576.47;5111130;28;20462;-59
2022/08/26 08:07:24;;;;;;;10.05;4.60;;;;;;;39.19;23.54;100583.22;5111192;28;20783;-60
2022/08/26 08:09:50;;;;;;;17.80;4.60;;;;;;;38.90;22.89;100581.88;5110756;28;20422;-60
2022/08/26 08:12:17;;;;;;;12.10;4.40;;;;;;;38.51;23.24;100578.28;5110979;28;20376;-60
2022/08/26 08:14:45;;;;;;;13.35;4.85;;;;;;;38.24;24.25;100578.91;5110691;28;20904;-59
2022/08/26 08:17:13;;;;;;;15.32;4.20;;;;;;;38.03;22.91;100576.44;5110868;28;20428;-59
2022/08/26 08:19:40;;;;;;;13.30;3.63;;;;;;;37.67;21.88;100581.13;5110585;28;20877;-61
2022/08/26 08:22:06;;;;;;;10.25;3.30;;;;;;;37.22;20.80;100567.69;5110748;28;20379;-59
2022/08/26 08:24:33;;;;;;;13.43;3.05;;;;;;;36.86;20.18;100573.06;5110587;28;20425;-60
2022/08/26 08:27:00;;;;;;;9.85;2.80;;;;;;;36.51;19.69;100573.59;5110875;28;20888;-60
2022/08/26 08:29:28;;;;;;;10.23;3.10;;;;;;;36.23;21.57;100570.00;5110395;28;20437;-59
2022/08/26 08:31:57;;;;;;;14.85;3.67;;;;;;;35.98;21.91;100570.81;5110357;28;20946;-62
2022/08/26 08:34:25;;;;;;;13.10;3.25;;;;;;;35.66;22.59;100566.22;5110593;28;20384;-59
2022/08/26 08:36:51;;;;;;;9.88;2.88;;;;;;;35.53;21.21;100568.13;5110328;28;20378;-60
2022/08/26 08:39:17;;;;;;;9.17;2.60;;;;;;;35.54;20.29;100573.28;5110619;28;20470;-59
2022/08/26 08:41:54;;;;;;;14.57;2.70;;;;;;;35.35;21.07;100571.09;5110532;28;20422;-59
2022/08/26 08:44:23;;;;;;;12.83;3.20;;;;;;;35.13;21.48;100565.97;5109998;28;20379;-58
2022/08/26 08:46:59;;;;;;;18.20;4.97;;;;;;;35.13;22.33;100561.28;5110682;28;20470;-59
2022/08/26 08:49:27;;;;;;;12.77;4.25;;;;;;;35.09;22.73;100559.53;5110042;28;20376;-59
2022/08/26 08:52:25;;;;;;;11.48;3.92;;;;;;;35.18;23.88;100565.75;5110309;28;20432;-58
2022/08/26 08:54:52;;;;;;;14.20;3.60;;;;;;;35.25;23.94;100559.72;5110303;28;20388;-59
2022/08/26 08:57:26;;;;;;;12.48;3.03;;;;;;;35.27;23.21;100555.47;5110057;28;20440;-59
2022/08/26 09:00:12;;;;;;;12.90;3.20;;;;;;;35.31;23.03;100556.41;5110359;28;20375;-60
2022/08/26 09:02:56;;;;;;;8.18;3.10;;;;;;;35.08;22.40;100546.88;5110282;28;20375;-60
2022/08/26 09:05:30;;;;;;;9.55;3.20;;;;;;;35.06;22.49;100543.66;5110276;28;20384;-59
2022/08/26 09:08:03;;;;;;;12.38;3.00;;;;;;;34.72;21.47;100554.69;5110467;28;20402;-59
2022/08/26 09:10:37;;;;;;;13.52;3.10;;;;;;;34.63;22.17;100545.69;5110156;28;20454;-59
2022/08/26 09:13:13;;;;;;;10.45;2.50;;;;;;;34.79;21.09;100549.44;5110161;28;20367;-60
2022/08/26 09:15:49;;;;;;;9.73;2.40;;;;;;;34.64;21.17;100553.59;5110190;28;20395;-59
2022/08/26 09:18:42;;;;;;;12.32;2.50;;;;;;;34.76;20.99;100554.84;5109831;28;20492;-59
2022/08/26 09:21:11;;;;;;;10.23;3.78;;;;;;;34.87;22.40;100552.47;5110054;28;20376;-60
2022/08/26 09:23:39;;;;;;;6.95;2.60;;;;;;;34.91;20.65;100554.19;5110126;28;20401;-64
2022/08/26 09:26:40;;;;;;;7.65;2.50;;;;;;;34.85;20.21;100548.09;5110110;28;20896;-60
2022/08/26 09:29:14;;;;;;;9.65;2.95;;;;;;;34.83;21.40;100544.06;5109852;28;20390;-59
2022/08/26 09:31:40;;;;;;;12.57;3.03;;;;;;;34.89;21.07;100548.22;5109916;28;20427;-59
2022/08/26 09:34:16;;;;;;;11.17;3.10;;;;;;;34.91;22.63;100548.69;5110177;28;20426;-59
2022/08/26 09:36:58;;;;;;;10.50;3.05;;;;;;;35.01;22.52;100545.50;5109706;28;20827;-59
2022/08/26 09:39:35;;;;;;;12.20;3.55;;;;;;;35.08;23.92;100541.38;5109728;28;20399;-61
2022/08/26 09:42:21;;;;;;;8.30;3.40;;;;;;;35.15;23.47;100541.63;5109967;28;20475;-60
2022/08/26 09:44:59;;;;;;;15.80;3.10;;;;;;;35.08;22.90;100533.09;5109929;28;20376;-60
2022/08/26 09:47:36;;;;;;;13.20;3.15;;;;;;;34.95;22.56;100532.28;5109614;28;20367;-60
2022/08/26 09:50:24;;;;;;;7.57;2.63;;;;;;;34.66;22.59;100529.31;5109517;28;20419;-60
2022/08/26 09:53:22;;;;;;;8.98;2.88;;;;;;;34.38;22.76;100537.31;5109116;28;20399;-60
2022/08/26 09:55:51;;;;;;;9.80;2.80;;;;;;;34.14;22.84;100528.88;5109766;28;20379;-60
2022/08/26 09:58:33;;;;;;;9.05;2.78;;;;;;;34.17;23.69;100536.47;5113205;28;20371;-60
2022/08/26 10:01:02;;;;;;;11.48;3.20;;;;;;;34.19;23.31;100535.00;5113463;28;20536;-60
2022/08/26 10:03:31;;;;;;;12.98;2.97;;;;;;;34.14;23.49;100535.19;5113442;28;20420;-60
2022/08/26 10:06:06;;;;;;;13.43;3.28;;;;;;;34.14;23.75;100526.13;5113518;28;20382;-60
2022/08/26 10:08:58;;;;;;;13.43;3.20;;;;;;;34.08;23.52;100528.25;5113276;28;20446;-60
2022/08/26 10:11:41;;;;;;;13.45;4.80;;;;;;;34.18;24.23;100524.34;5109338;28;20419;-60
2022/08/26 10:14:28;;;;;;;8.63;3.28;;;;;;;34.21;24.13;100534.66;5113280;28;20372;-59
2022/08/26 10:16:58;;;;;;;10.10;3.58;;;;;;;34.16;23.44;100527.41;5113190;28;20463;-60
2022/08/26 10:19:32;;;;;;;11.93;2.90;;;;;;;34.04;23.51;100530.88;5113206;28;20372;-59
2022/08/26 10:22:17;;;;;;;12.77;3.13;;;;;;;34.19;23.01;100523.19;5113204;28;20379;-59
2022/08/26 10:24:53;;;;;;;15.93;3.10;;;;;;;34.29;22.45;100531.06;5113094;28;20459;-59
2022/08/26 10:27:23;;;;;;;9.30;2.87;;;;;;;34.35;22.12;100531.66;5113101;28;20436;-59
2022/08/26 10:29:53;;;;;;;12.27;3.00;;;;;;;34.28;21.72;100515.69;5112754;28;20905;-59
2022/08/26 10:32:40;;;;;;;10.25;2.75;;;;;;;34.31;22.09;100505.97;5113115;28;21310;-59
2022/08/26 10:35:10;;;;;;;15.73;2.90;;;;;;;34.40;22.10;100512.19;5112658;28;20904;-60
2022/08/26 10:37:40;;;;;;;8.50;3.03;;;;;;;34.49;22.51;100510.19;5112930;28;20383;-59
2022/08/26 10:40:14;;;;;;;12.80;3.70;;;;;;;34.54;22.31;100503.66;5112868;28;20408;-59
2022/08/26 10:43:18;;;;;;;8.23;2.97;;;;;;;34.60;22.30;100503.09;5112514;28;20468;-60
2022/08/26 10:45:50;;;;;;;14.20;3.20;;;;;;;34.49;21.81;100501.91;5113111;28;20922;-59
2022/08/26 10:48:23;;;;;;;10.85;2.70;;;;;;;34.29;22.08;100503.53;5112447;28;20379;-60
2022/08/26 10:50:50;;;;;;;14.27;2.90;;;;;;;34.36;22.69;100506.56;5112507;28;20870;-60
2022/08/26 10:53:18;;;;;;;12.38;2.67;;;;;;;34.36;22.12;100505.75;5112559;28;20379;-60
2022/08/26 10:55:56;;;;;;;10.05;2.58;;;;;;;34.13;22.08;100505.25;5112427;28;20891;-61
2022/08/26 10:59:09;;;;;;;9.65;3.10;;;;;;;34.01;22.08;100504.03;5112199;28;20399;-60
2022/08/26 11:01:49;;;;;;;13.50;2.90;;;;;;;33.99;22.35;100497.25;5049761;28;20403;-60
2022/08/26 11:04:27;;;;;;;7.45;2.50;;;;;;;34.09;21.95;100503.16;5112178;28;20884;-62
2022/08/26 11:07:30;;;;;;;9.70;2.50;;;;;;;34.12;21.73;100498.94;5111881;28;20384;-60
2022/08/26 11:10:01;;;;;;;11.20;2.92;;;;;;;34.17;21.84;100498.75;5112146;28;20422;-60
2022/08/26 11:12:36;;;;;;;8.38;2.70;;;;;;;34.22;21.83;100492.28;5112179;28;20424;-60
2022/08/26 11:15:02;;;;;;;9.75;2.95;;;;;;;34.25;21.42;100497.09;5112039;28;20383;-60
2022/08/26 11:17:47;;;;;;;7.10;2.63;;;;;;;34.25;21.71;100491.59;5112064;28;20380;-59
2022/08/26 11:20:22;;;;;;;8.93;2.83;;;;;;;34.27;21.94;100489.31;5097047;28;21065;-59
2022/08/26 11:22:49;;;;;;;11.13;2.80;;;;;;;34.30;21.75;100488.63;5110939;28;20383;-61
2022/08/26 11:25:19;;;;;;;13.60;2.55;;;;;;;34.27;21.77;100483.81;5111474;28;20441;-59
2022/08/26 11:27:48;;;;;;;9.70;2.77;;;;;;;34.27;21.71;100486.56;5111923;28;20395;-60
2022/08/26 11:30:16;;;;;;;8.75;2.83;;;;;;;34.28;21.66;100488.16;5111978;28;20411;-60
2022/08/26 11:32:42;;;;;;;8.55;2.70;;;;;;;34.27;21.75;100472.81;5111797;28;20530;-59
2022/08/26 11:35:12;;;;;;;7.67;2.70;;;;;;;34.26;21.88;100480.25;5111250;28;20475;-62
2022/08/26 11:37:47;;;;;;;11.77;2.88;;;;;;;34.33;21.59;100481.66;5111710;28;20379;-60
2022/08/26 11:40:23;;;;;;;7.68;2.40;;;;;;;34.29;21.50;100473.28;5111628;28;20412;-60
2022/08/26 11:42:55;;;;;;;11.57;2.80;;;;;;;34.31;21.33;100468.25;5111323;28;20391;-59
2022/08/26 11:45:58;;;;;;;8.93;2.30;;;;;;;34.18;21.25;100478.38;5111594;28;20479;-59
2022/08/26 11:48:27;;;;;;;7.75;2.28;;;;;;;34.04;21.26;100478.63;5097974;28;20403;-60
2022/08/26 11:50:54;;;;;;;8.10;2.47;;;;;;;34.07;21.49;100472.44;5111421;28;20403;-59